Time;durP1;ratioP1;P1;durP2;ratioP2;P2;SDS_P1;SDS_P2;PMS_P1;PMS_P2;Temp;Humidity;BMP_temperature;BMP_pressure;BME280_temperature;BME280_humidity;BME280_pressure;Samples;Min_cycle;Max_cycle;Signal;HPM_P1;HPM_P2
2022/09/27 00:01:08;;;;;;;14.10;6.50;;;;;;;11.43;58.99;99031.22;5099676;28;20380;-78
2022/09/27 00:03:34;;;;;;;15.00;7.63;;;;;;;11.07;59.05;99002.78;5081905;28;20040;-77
2022/09/27 00:06:06;;;;;;;11.68;6.60;;;;;;;11.40;59.25;99022.78;5113038;28;20062;-77
2022/09/27 00:08:33;;;;;;;9.57;5.90;;;;;;;11.34;59.27;99026.16;5094895;28;20044;-76
2022/09/27 00:11:12;;;;;;;10.43;5.93;;;;;;;11.50;59.35;99032.16;5113003;28;20045;-77
2022/09/27 00:13:38;;;;;;;9.10;5.80;;;;;;;11.25;59.81;99024.56;5077731;28;20188;-78
2022/09/27 00:16:04;;;;;;;11.07;6.10;;;;;;;11.25;59.17;99021.91;5095469;28;20077;-78
2022/09/27 00:18:30;;;;;;;11.02;6.00;;;;;;;11.43;59.07;99033.91;5113146;28;20477;-78
2022/09/27 00:21:03;;;;;;;11.52;6.43;;;;;;;11.52;59.04;99021.34;5094255;28;20059;-79
2022/09/27 00:23:29;;;;;;;13.95;6.45;;;;;;;11.21;58.95;99031.25;5117492;28;20059;-78
2022/09/27 00:25:56;;;;;;;10.77;6.65;;;;;;;11.38;58.80;99028.28;5098809;28;20154;-78
2022/09/27 00:28:23;;;;;;;9.63;6.25;;;;;;;11.28;58.33;99025.03;5099947;28;20131;-79
2022/09/27 00:30:49;;;;;;;8.90;6.03;;;;;;;11.19;58.25;99019.97;5117398;28;20039;-76
2022/09/27 00:33:14;;;;;;;9.27;5.18;;;;;;;11.08;58.16;98999.09;5083077;28;20050;-79
2022/09/27 00:35:40;;;;;;;8.57;5.32;;;;;;;11.15;57.99;99023.94;5084822;28;20449;-81
2022/09/27 00:38:13;;;;;;;10.15;5.80;;;;;;;11.11;57.85;99022.66;5100503;28;20047;-80
2022/09/27 00:40:39;;;;;;;10.77;5.88;;;;;;;11.04;57.95;99016.41;5117900;28;20401;-79
2022/09/27 00:43:19;;;;;;;10.43;6.00;;;;;;;11.37;58.09;99031.13;5118148;28;20131;-79
2022/09/27 00:45:58;;;;;;;12.07;5.40;;;;;;;11.31;57.93;99021.19;5082973;28;20051;-78
2022/09/27 00:48:26;;;;;;;10.82;6.32;;;;;;;11.06;58.79;99027.66;5098886;28;20055;-79
2022/09/27 00:50:57;;;;;;;10.32;5.88;;;;;;;11.19;58.41;99036.72;5097954;28;20035;-79
2022/09/27 00:53:28;;;;;;;9.07;5.45;;;;;;;11.16;58.19;99031.75;5066659;28;20062;-77
2022/09/27 00:56:03;;;;;;;13.13;6.22;;;;;;;11.19;58.62;99035.91;5117977;28;20062;-79
2022/09/27 00:58:32;;;;;;;9.50;5.78;;;;;;;11.10;58.72;99034.31;5098839;28;20040;-79
2022/09/27 01:01:01;;;;;;;10.98;5.78;;;;;;;11.15;58.60;99045.22;5097957;28;20039;-76
2022/09/27 01:03:54;;;;;;;10.48;5.85;;;;;;;11.22;58.38;99043.53;5097930;28;20035;-75
2022/09/27 01:06:21;;;;;;;13.63;6.93;;;;;;;11.01;58.79;99043.34;5098369;28;20039;-76
2022/09/27 01:08:48;;;;;;;11.85;6.57;;;;;;;10.91;58.81;99042.72;5081246;28;20047;-77
2022/09/27 01:11:33;;;;;;;11.18;5.85;;;;;;;11.23;58.54;99042.50;5081159;28;20481;-76
2022/09/27 01:14:02;;;;;;;13.23;6.10;;;;;;;11.05;58.98;99045.47;5098223;28;20061;-75
2022/09/27 01:16:33;;;;;;;9.18;5.72;;;;;;;11.12;58.71;99046.41;5116070;28;20078;-76
2022/09/27 01:19:07;;;;;;;8.18;5.85;;;;;;;11.04;59.15;99035.81;5082173;28;20051;-75
2022/09/27 01:21:39;;;;;;;11.48;6.05;;;;;;;11.08;58.76;99034.47;5099351;28;20142;-76
2022/09/27 01:24:16;;;;;;;7.47;5.57;;;;;;;10.81;58.56;99042.13;5081064;28;20043;-72
2022/09/27 01:27:06;;;;;;;13.35;6.40;;;;;;;11.05;58.38;99045.47;5097647;28;20048;-75
2022/09/27 01:29:41;;;;;;;32.15;6.55;;;;;;;10.93;58.02;99049.50;5082013;28;20059;-77
2022/09/27 01:32:13;;;;;;;9.00;5.20;;;;;;;10.61;58.01;99047.00;5081980;28;20043;-76
2022/09/27 01:34:47;;;;;;;25.10;6.72;;;;;;;10.93;57.85;99046.84;5079835;28;20039;-77
2022/09/27 01:37:22;;;;;;;29.65;7.55;;;;;;;10.99;57.29;99050.66;5080530;28;20043;-75
2022/09/27 01:39:50;;;;;;;149.38;8.68;;;;;;;10.47;57.57;99029.13;5066240;28;20127;-77
2022/09/27 01:42:35;;;;;;;33.20;6.85;;;;;;;10.88;56.86;99051.03;5087816;28;20430;-76
2022/09/27 01:45:05;;;;;;;33.55;5.70;;;;;;;10.83;56.79;99048.06;5083576;28;20524;-76
2022/09/27 01:47:42;;;;;;;44.00;7.43;;;;;;;10.74;56.74;99043.78;5099943;28;20039;-77
2022/09/27 01:50:46;;;;;;;83.18;7.50;;;;;;;10.67;56.71;99048.97;5105354;28;20048;-76
2022/09/27 01:53:34;;;;;;;433.55;16.92;;;;;;;10.57;57.53;99044.84;5063446;28;20035;-75
2022/09/27 01:56:27;;;;;;;428.98;18.30;;;;;;;10.31;58.75;99033.69;5099186;28;20047;-76
2022/09/27 01:59:24;;;;;;;623.05;24.55;;;;;;;10.11;59.00;99028.78;5081045;28;20482;-76
2022/09/27 02:02:02;;;;;;;462.10;18.80;;;;;;;10.44;58.74;99034.78;5089708;28;20069;-78
2022/09/27 02:04:40;;;;;;;334.33;18.13;;;;;;;10.47;58.72;99037.09;5066310;28;20079;-72
2022/09/27 02:07:28;;;;;;;494.02;23.40;;;;;;;10.59;58.14;99033.09;5067909;28;20035;-78
2022/09/27 02:10:08;;;;;;;483.88;21.98;;;;;;;10.44;58.78;99033.97;5068293;28;20050;-78
2022/09/27 02:12:51;;;;;;;328.30;17.00;;;;;;;10.52;59.15;99032.09;5085107;28;20131;-77
2022/09/27 02:15:17;;;;;;;262.20;16.25;;;;;;;10.29;59.24;99025.88;5081549;28;20145;-76
2022/09/27 02:18:00;;;;;;;134.48;12.77;;;;;;;10.52;59.11;99031.28;5081966;28;20500;-76
2022/09/27 02:20:34;;;;;;;136.30;11.35;;;;;;;10.55;59.12;99034.41;5063102;28;20075;-75
2022/09/27 02:23:25;;;;;;;14.00;6.47;;;;;;;10.66;58.88;99033.19;5079835;28;20054;-76
2022/09/27 02:26:11;;;;;;;31.17;14.18;;;;;;;10.62;58.16;99015.97;5067922;28;20192;-78
2022/09/27 02:28:56;;;;;;;32.70;17.42;;;;;;;10.63;58.17;99028.22;5067070;28;20043;-77
2022/09/27 02:31:28;;;;;;;14.18;7.78;;;;;;;10.32;58.46;99027.38;5080942;28;20055;-75
2022/09/27 02:34:01;;;;;;;40.97;8.77;;;;;;;10.58;58.50;99033.25;5079001;28;20039;-73
2022/09/27 02:36:27;;;;;;;18.25;9.63;;;;;;;10.30;58.94;99024.91;5079176;28;20044;-74
2022/09/27 02:38:53;;;;;;;28.17;8.30;;;;;;;10.28;59.03;99034.84;5113665;28;20050;-75
2022/09/27 02:41:21;;;;;;;46.38;7.47;;;;;;;10.24;58.83;99030.88;5095633;28;20039;-75
2022/09/27 02:43:51;;;;;;;18.70;7.85;;;;;;;10.27;59.78;99034.00;5078494;28;20059;-75
2022/09/27 02:46:30;;;;;;;15.05;7.38;;;;;;;10.37;60.30;99038.28;5079306;28;20047;-75
2022/09/27 02:49:18;;;;;;;13.32;7.28;;;;;;;10.59;59.15;99037.56;5080047;28;20464;-77
2022/09/27 02:51:58;;;;;;;11.60;6.72;;;;;;;10.56;58.51;99049.38;5082147;28;20047;-78
2022/09/27 02:55:07;;;;;;;7.97;5.60;;;;;;;10.52;58.30;99041.91;5063748;28;20054;-80
2022/09/27 02:58:28;;;;;;;43.50;7.35;;;;;;;10.52;58.12;99047.22;5035041;28;20048;-79
2022/09/27 03:01:35;;;;;;;129.75;10.82;;;;;;;10.44;59.06;99047.25;5114042;28;20077;-77
2022/09/27 03:04:22;;;;;;;53.85;8.82;;;;;;;9.91;59.83;99042.53;5095863;28;20135;-76
2022/09/27 03:06:48;;;;;;;59.65;11.02;;;;;;;9.90;60.44;99043.53;5078765;28;20059;-77
2022/09/27 03:09:19;;;;;;;41.25;10.23;;;;;;;10.23;59.82;99032.72;5044855;28;20489;-77
2022/09/27 03:11:45;;;;;;;17.35;7.60;;;;;;;10.03;59.17;99035.88;5078303;28;20050;-76
2022/09/27 03:14:11;;;;;;;26.30;8.88;;;;;;;9.91;59.20;99014.19;5095272;28;20055;-77
2022/09/27 03:16:44;;;;;;;18.67;8.45;;;;;;;10.12;58.61;99041.03;5095454;28;20101;-77
2022/09/27 03:19:30;;;;;;;16.10;7.70;;;;;;;10.11;58.18;99039.38;5098223;28;20078;-77
2022/09/27 03:22:14;;;;;;;13.38;6.88;;;;;;;10.16;57.85;99042.34;5113398;28;20381;-74
2022/09/27 03:24:41;;;;;;;12.88;7.10;;;;;;;10.05;57.95;99039.19;5079451;28;20075;-77
2022/09/27 03:27:07;;;;;;;14.32;6.70;;;;;;;10.20;57.68;99041.03;5062653;28;20448;-77
2022/09/27 03:29:33;;;;;;;11.50;6.03;;;;;;;10.11;56.99;99043.84;5096368;28;20043;-76
2022/09/27 03:32:04;;;;;;;16.77;7.43;;;;;;;10.08;57.17;99049.50;5096044;28;20039;-76
2022/09/27 03:34:49;;;;;;;15.27;7.50;;;;;;;10.02;57.64;99045.66;5083010;28;20458;-76
2022/09/27 03:37:16;;;;;;;12.48;6.85;;;;;;;10.05;57.02;99047.16;5079405;28;20099;-76
2022/09/27 03:39:42;;;;;;;11.55;6.13;;;;;;;10.02;56.68;99048.31;5079090;28;20143;-78
2022/09/27 03:42:07;;;;;;;13.65;6.90;;;;;;;10.01;57.42;99041.34;5045943;28;20043;-77
2022/09/27 03:44:36;;;;;;;15.38;7.85;;;;;;;10.10;57.86;99045.66;5078845;28;20381;-75
2022/09/27 03:47:02;;;;;;;13.27;7.97;;;;;;;10.15;57.70;99045.16;5096370;28;20043;-75
2022/09/27 03:49:28;;;;;;;15.88;8.05;;;;;;;10.16;57.38;99047.66;5116006;28;20047;-78
2022/09/27 03:51:53;;;;;;;11.80;6.40;;;;;;;10.22;56.76;99051.47;5099014;28;20070;-78
2022/09/27 03:54:19;;;;;;;9.77;6.10;;;;;;;10.08;56.86;99031.75;5112985;28;20043;-78
2022/09/27 03:56:45;;;;;;;10.55;6.68;;;;;;;10.17;56.05;99059.94;5094015;28;20044;-77
2022/09/27 03:59:11;;;;;;;9.30;5.90;;;;;;;10.16;57.19;99060.09;5078876;28;20051;-77
2022/09/27 04:01:57;;;;;;;9.38;5.95;;;;;;;10.20;57.13;99056.94;5114466;28;20358;-78
2022/09/27 04:04:43;;;;;;;9.70;6.40;;;;;;;10.22;57.33;99062.88;5097751;28;20055;-75
2022/09/27 04:07:10;;;;;;;10.38;6.13;;;;;;;10.10;56.94;99036.91;5095190;28;20039;-75
2022/09/27 04:09:36;;;;;;;14.10;6.78;;;;;;;10.32;57.78;99067.19;5094710;28;20112;-77
2022/09/27 04:12:03;;;;;;;9.23;5.72;;;;;;;10.27;56.78;99049.13;5078072;28;20393;-76
2022/09/27 04:14:32;;;;;;;7.00;5.20;;;;;;;10.37;55.77;99070.16;5094467;28;20104;-78
2022/09/27 04:17:18;;;;;;;12.60;6.25;;;;;;;10.39;56.36;99068.16;5063609;28;20051;-76
2022/09/27 04:20:07;;;;;;;8.38;5.53;;;;;;;10.44;55.17;99071.13;5070475;28;20043;-80
2022/09/27 04:22:38;;;;;;;8.10;5.60;;;;;;;10.65;55.32;99069.56;5079134;28;20052;-80
2022/09/27 04:25:04;;;;;;;7.53;5.22;;;;;;;10.50;55.33;99070.44;5096593;28;20035;-76
2022/09/27 04:27:37;;;;;;;11.20;6.07;;;;;;;10.53;55.50;99068.28;5079888;28;20350;-76
2022/09/27 04:30:05;;;;;;;14.02;6.75;;;;;;;10.67;56.13;99072.06;5063146;28;20054;-80
2022/09/27 04:32:56;;;;;;;11.90;6.60;;;;;;;10.54;56.98;99058.47;5081596;28;20047;-77
2022/09/27 04:38:31;;;;;;;9.82;6.10;;;;;;;10.78;56.92;99074.34;5064008;28;20092;-78
2022/09/27 04:41:00;;;;;;;12.70;6.15;;;;;;;10.71;56.08;99058.25;5077815;28;20067;-77
2022/09/27 04:43:26;;;;;;;9.88;5.68;;;;;;;10.86;56.05;99076.94;5096173;28;20065;-77
2022/09/27 04:45:52;;;;;;;8.32;5.75;;;;;;;10.85;55.81;99064.66;5047130;28;20047;-79
2022/09/27 04:48:17;;;;;;;9.23;5.18;;;;;;;10.95;55.43;99067.91;5066880;28;20050;-73
2022/09/27 04:50:43;;;;;;;9.75;5.47;;;;;;;10.93;55.10;99067.28;5082289;28;20035;-79
2022/09/27 04:53:14;;;;;;;9.68;5.43;;;;;;;11.22;54.65;99073.59;5077658;28;20516;-79
2022/09/27 04:55:44;;;;;;;8.43;4.95;;;;;;;11.24;54.48;99073.41;5061751;28;20089;-79
2022/09/27 04:58:10;;;;;;;10.68;5.80;;;;;;;11.07;55.83;99074.50;5062412;28;20043;-78
2022/09/27 05:00:35;;;;;;;10.68;6.03;;;;;;;11.22;56.14;99080.72;5061488;28;20134;-78
2022/09/27 05:03:21;;;;;;;10.25;5.78;;;;;;;11.50;54.39;99081.88;5100945;28;20039;-77
2022/09/27 05:06:00;;;;;;;11.98;6.05;;;;;;;11.29;54.20;99052.44;5084793;28;20039;-77
2022/09/27 05:08:26;;;;;;;7.65;5.30;;;;;;;11.46;53.54;99080.56;5084570;28;20100;-75
2022/09/27 05:11:10;;;;;;;7.65;5.60;;;;;;;11.46;53.95;99069.94;5123671;28;20054;-77
2022/09/27 05:13:37;;;;;;;10.77;5.20;;;;;;;11.41;53.89;99056.31;5107249;28;20094;-78
2022/09/27 05:16:04;;;;;;;9.52;5.70;;;;;;;11.56;54.04;99076.66;5089828;28;20043;-80
2022/09/27 05:18:59;;;;;;;10.32;5.70;;;;;;;11.49;54.04;99045.63;5088678;28;20361;-77
2022/09/27 05:21:49;;;;;;;11.07;6.57;;;;;;;11.81;54.00;99069.34;5088108;28;20154;-79
2022/09/27 05:24:17;;;;;;;10.20;6.38;;;;;;;11.81;54.11;99079.97;5099316;28;20512;-80
2022/09/27 05:26:44;;;;;;;9.73;6.45;;;;;;;11.93;54.29;99078.56;5098016;28;20477;-77
2022/09/27 05:29:10;;;;;;;10.63;5.88;;;;;;;11.93;54.00;99053.78;5098329;28;20110;-76
2022/09/27 05:31:37;;;;;;;7.60;5.25;;;;;;;11.99;52.86;99047.72;5047698;28;20135;-76
2022/09/27 05:34:03;;;;;;;14.55;6.70;;;;;;;12.15;53.01;99056.38;5081450;28;20142;-81
2022/09/27 05:36:36;;;;;;;9.88;6.25;;;;;;;12.26;53.33;99069.25;5082364;28;20040;-76
2022/09/27 05:39:02;;;;;;;11.57;5.75;;;;;;;12.24;53.63;99028.66;5081464;28;20039;-76
2022/09/27 05:41:31;;;;;;;8.43;5.47;;;;;;;12.39;53.29;99064.13;5098570;28;20050;-82
2022/09/27 05:43:58;;;;;;;8.65;4.85;;;;;;;12.65;53.64;99069.81;5116218;28;20385;-78
2022/09/27 05:46:24;;;;;;;11.43;5.35;;;;;;;12.72;53.59;99062.72;5080357;28;20123;-79
2022/09/27 05:48:50;;;;;;;8.75;5.30;;;;;;;12.72;53.60;99048.56;5080387;28;20039;-78
2022/09/27 05:51:15;;;;;;;9.15;5.05;;;;;;;12.99;53.46;99061.22;5065171;28;20036;-78
2022/09/27 05:53:41;;;;;;;10.27;4.60;;;;;;;13.14;53.61;99062.03;5081916;28;20043;-77
2022/09/27 05:56:17;;;;;;;9.05;4.75;;;;;;;13.29;53.37;99052.16;5059608;28;20063;-77
2022/09/27 05:59:05;;;;;;;9.27;4.57;;;;;;;13.60;53.28;99047.31;5096747;28;20102;-72
2022/09/27 06:01:51;;;;;;;14.10;5.05;;;;;;;13.43;52.87;99038.75;5062392;28;20533;-77
2022/09/27 06:04:55;;;;;;;7.80;4.60;;;;;;;13.72;52.60;99058.28;5053340;28;20040;-75
2022/09/27 06:07:33;;;;;;;12.55;5.07;;;;;;;13.86;52.30;99054.72;5046105;28;20040;-75
2022/09/27 06:10:02;;;;;;;10.15;4.80;;;;;;;14.00;52.68;99057.31;5042130;28;20071;-76
2022/09/27 06:12:29;;;;;;;9.60;4.50;;;;;;;14.15;52.34;99049.19;5043177;28;20040;-75
2022/09/27 06:14:56;;;;;;;10.93;4.90;;;;;;;14.29;52.60;99054.47;5026655;28;20043;-75
2022/09/27 06:17:34;;;;;;;8.80;5.32;;;;;;;14.63;51.65;99053.66;5028679;28;20032;-75
2022/09/27 06:20:07;;;;;;;17.50;5.45;;;;;;;14.65;51.84;99046.28;5059615;28;20081;-76
2022/09/27 06:22:35;;;;;;;13.52;6.15;;;;;;;14.79;51.29;99054.13;5059423;28;20058;-75
2022/09/27 06:25:02;;;;;;;15.32;5.60;;;;;;;15.14;50.94;99070.94;5027048;28;20520;-75
2022/09/27 06:27:31;;;;;;;23.13;6.18;;;;;;;15.06;50.74;99045.22;5043481;28;20089;-75
2022/09/27 06:30:06;;;;;;;21.23;6.30;;;;;;;15.49;50.17;99071.69;5045388;28;20047;-75
2022/09/27 06:32:59;;;;;;;28.83;6.20;;;;;;;15.96;49.24;99075.03;5048482;28;20047;-77
2022/09/27 06:35:48;;;;;;;20.40;5.70;;;;;;;16.03;48.78;99083.06;5062532;28;20051;-75
2022/09/27 06:38:17;;;;;;;13.43;4.82;;;;;;;16.55;48.05;99078.53;5026582;28;20054;-74
2022/09/27 06:40:50;;;;;;;21.67;5.30;;;;;;;16.94;47.05;99076.75;5059837;28;20044;-75
2022/09/27 06:43:19;;;;;;;26.02;5.57;;;;;;;17.51;46.27;99079.41;5043137;28;20378;-76
2022/09/27 06:46:03;;;;;;;20.92;5.32;;;;;;;17.96;45.38;99070.19;5044834;28;20048;-73
2022/09/27 06:48:47;;;;;;;14.65;4.78;;;;;;;18.35;44.42;99078.75;5092422;28;20068;-72
2022/09/27 06:51:15;;;;;;;17.00;4.85;;;;;;;18.75;43.05;99075.69;5042067;28;20051;-76
2022/09/27 06:53:42;;;;;;;18.10;4.13;;;;;;;19.10;42.46;99072.16;5058652;28;20532;-73
2022/09/27 06:56:08;;;;;;;9.25;3.50;;;;;;;19.25;41.35;99066.41;5058163;28;20059;-73
2022/09/27 07:01:42;;;;;;;7.28;3.15;;;;;;;19.41;41.17;99063.91;5079827;28;20083;-73
2022/09/27 07:04:27;;;;;;;7.93;3.10;;;;;;;19.41;40.57;99063.91;5061258;28;20374;-72
2022/09/27 07:07:12;;;;;;;8.45;3.15;;;;;;;19.35;40.50;99058.63;5078736;28;20526;-72
2022/09/27 07:09:43;;;;;;;11.32;2.75;;;;;;;19.40;40.46;99061.47;5064681;28;20472;-73
2022/09/27 07:12:12;;;;;;;7.07;2.40;;;;;;;20.06;39.62;99068.28;5077298;28;20036;-72
2022/09/27 07:14:38;;;;;;;7.60;2.55;;;;;;;22.32;36.28;99069.44;5075569;28;20389;-72
2022/09/27 07:17:05;;;;;;;12.55;2.80;;;;;;;25.80;30.68;99054.13;5077974;28;20039;-73
2022/09/27 07:19:39;;;;;;;10.05;2.65;;;;;;;29.11;25.69;99042.34;5078553;28;20163;-71
2022/09/27 07:22:08;;;;;;;9.00;2.22;;;;;;;31.92;21.86;99031.03;5069842;28;20074;-72
2022/09/27 07:24:34;;;;;;;15.65;2.70;;;;;;;34.06;18.96;99028.78;5044210;28;20104;-72
2022/09/27 07:27:01;;;;;;;13.65;2.53;;;;;;;35.94;16.84;99038.19;5058252;28;20042;-73
2022/09/27 07:29:27;;;;;;;10.68;2.28;;;;;;;37.00;15.44;99036.09;5057451;28;20047;-73
2022/09/27 07:31:53;;;;;;;10.55;1.98;;;;;;;37.12;15.08;99038.88;5058361;28;20044;-74
2022/09/27 07:34:20;;;;;;;14.73;1.83;;;;;;;37.88;13.88;99016.72;5058184;28;20048;-73
2022/09/27 07:36:45;;;;;;;7.72;1.60;;;;;;;37.55;14.21;99035.50;5074581;28;20071;-73
2022/09/27 07:39:12;;;;;;;5.13;1.65;;;;;;;35.45;15.66;99023.28;5042003;28;20126;-70
2022/09/27 07:41:39;;;;;;;12.35;1.65;;;;;;;33.43;17.05;99023.06;5041515;28;20402;-74
2022/09/27 07:44:09;;;;;;;5.32;1.45;;;;;;;32.99;17.31;99022.44;5041827;28;20047;-75
2022/09/27 07:46:44;;;;;;;9.25;1.88;;;;;;;31.67;18.56;99021.41;5059279;28;20839;-74
2022/09/27 07:49:18;;;;;;;11.57;4.28;;;;;;;32.12;18.25;99014.03;5042531;28;20135;-73
2022/09/27 07:51:50;;;;;;;10.07;1.60;;;;;;;32.13;18.12;99023.88;5073667;28;20115;-76
2022/09/27 07:54:38;;;;;;;8.40;1.80;;;;;;;31.28;19.07;99025.81;5030532;28;20044;-77
2022/09/27 07:57:04;;;;;;;5.55;1.45;;;;;;;32.36;17.75;99020.84;5086817;28;20032;-76
2022/09/27 07:59:31;;;;;;;7.90;1.52;;;;;;;35.01;15.57;99019.09;5059945;28;20187;-76
2022/09/27 08:01:59;;;;;;;7.70;1.50;;;;;;;37.74;13.60;99041.25;5077322;28;20050;-77
2022/09/27 08:04:25;;;;;;;9.07;1.95;;;;;;;40.20;11.76;99036.44;5078162;28;20044;-78
2022/09/27 08:06:51;;;;;;;8.35;1.75;;;;;;;42.17;10.21;99034.13;5114166;28;20138;-76
2022/09/27 08:09:17;;;;;;;5.22;1.42;;;;;;;43.98;9.16;99031.28;5074220;28;20052;-78
2022/09/27 08:11:44;;;;;;;5.28;1.20;;;;;;;44.50;8.18;99025.06;5043143;28;20050;-77
2022/09/27 08:14:12;;;;;;;2.95;1.02;;;;;;;44.09;8.05;99017.31;5039098;28;20040;-76
2022/09/27 08:16:40;;;;;;;2.85;0.98;;;;;;;41.82;9.35;99014.94;5058934;28;20511;-75
2022/09/27 08:19:15;;;;;;;1.85;0.95;;;;;;;39.11;11.12;99013.72;5079569;28;20138;-76
2022/09/27 08:21:54;;;;;;;1.70;0.90;;;;;;;34.65;13.43;99013.25;5063007;28;20505;-76
2022/09/27 08:24:22;;;;;;;1.27;0.90;;;;;;;31.62;16.87;98993.25;5091088;28;20046;-74
2022/09/27 08:27:14;;;;;;;1.25;0.90;;;;;;;29.78;19.10;98989.16;5045802;28;20142;-71
2022/09/27 08:29:49;;;;;;;3.78;1.05;;;;;;;28.84;19.92;98981.13;5041339;28;20048;-75
2022/09/27 08:32:16;;;;;;;6.28;1.02;;;;;;;28.39;20.62;98989.81;5057635;28;20645;-75
2022/09/27 08:34:42;;;;;;;1.55;1.10;;;;;;;27.60;21.94;98987.50;5059925;28;20512;-72
2022/09/27 08:37:09;;;;;;;2.65;1.42;;;;;;;26.94;22.35;98986.22;5057457;28;20393;-74
2022/09/27 08:39:35;;;;;;;4.07;1.70;;;;;;;25.56;23.88;98987.72;5040629;28;20135;-72
2022/09/27 08:42:25;;;;;;;4.68;1.77;;;;;;;24.81;25.71;98972.00;5073399;28;20495;-71
2022/09/27 08:45:07;;;;;;;;;;;;;;;25.72;24.47;98992.91;5077833;28;20424;-71
2022/09/27 08:47:39;;;;;;;3.47;1.75;;;;;;;26.35;23.79;98981.44;5044780;28;19926;-70
2022/09/27 08:50:27;;;;;;;4.13;1.92;;;;;;;26.48;23.64;98975.44;5045555;28;20428;-79
2022/09/27 08:53:02;;;;;;;5.70;1.85;;;;;;;27.50;22.61;98987.53;5079337;28;20052;-76
2022/09/27 08:55:37;;;;;;;4.55;1.90;;;;;;;27.96;21.87;98983.41;5061166;28;20051;-76
2022/09/27 08:58:35;;;;;;;5.18;2.22;;;;;;;28.31;21.61;98987.72;5061816;28;20105;-75
2022/09/27 09:01:09;;;;;;;3.83;2.25;;;;;;;28.03;21.80;98981.97;5070224;28;20131;-72
2022/09/27 09:03:48;;;;;;;5.38;2.20;;;;;;;27.09;22.40;98970.59;5044944;28;20046;-74
2022/09/27 09:06:30;;;;;;;4.38;1.98;;;;;;;26.99;22.83;98976.09;5061334;28;20474;-73
2022/09/27 09:09:05;;;;;;;4.65;1.45;;;;;;;28.02;21.04;98996.72;5077792;28;20040;-73
2022/09/27 09:14:46;;;;;;;6.18;1.92;;;;;;;28.00;21.21;98990.72;5080697;28;20048;-74
2022/09/27 09:17:20;;;;;;;3.08;1.77;;;;;;;30.75;18.92;98987.19;5097680;28;20047;-75
2022/09/27 09:20:23;;;;;;;3.67;1.50;;;;;;;32.41;17.28;98998.69;5066015;28;20051;-74
2022/09/27 09:23:16;;;;;;;1.87;1.10;;;;;;;35.03;14.35;98967.16;5097833;28;20047;-74
2022/09/27 09:26:03;;;;;;;2.67;1.02;;;;;;;36.87;12.81;98986.63;5064004;28;20763;-75
2022/09/27 09:28:48;;;;;;;1.10;0.80;;;;;;;38.88;11.08;98976.63;5080383;28;20140;-75
2022/09/27 09:31:37;;;;;;;3.63;1.00;;;;;;;41.14;9.41;98990.06;5063835;28;20511;-74
2022/09/27 09:34:18;;;;;;;4.03;1.00;;;;;;;42.67;8.83;98972.03;5046677;28;20091;-76
2022/09/27 09:36:49;;;;;;;3.40;1.02;;;;;;;43.30;8.13;98978.16;5080257;28;20141;-75
2022/09/27 09:39:52;;;;;;;2.15;0.80;;;;;;;40.75;9.13;98962.75;5061811;28;20138;-76
2022/09/27 09:42:28;;;;;;;1.38;1.17;;;;;;;39.63;9.96;98964.94;4998801;28;20053;-75
2022/09/27 09:44:58;;;;;;;1.58;0.80;;;;;;;38.00;10.57;98968.72;5070982;28;20051;-76
2022/09/27 09:47:32;;;;;;;2.15;1.08;;;;;;;37.04;11.89;98969.75;5080067;28;20047;-77
2022/09/27 09:50:04;;;;;;;1.90;1.20;;;;;;;38.34;10.92;98963.34;5096216;28;20058;-77
2022/09/27 09:52:41;;;;;;;2.85;1.10;;;;;;;39.12;10.25;98957.00;5064068;28;20070;-76
2022/09/27 09:55:17;;;;;;;6.78;1.33;;;;;;;37.81;11.35;98955.50;5079767;28;20039;-76
2022/09/27 09:58:03;;;;;;;1.67;0.98;;;;;;;36.03;12.14;98956.78;5096353;28;20502;-76
2022/09/27 10:00:39;;;;;;;5.30;0.95;;;;;;;34.24;13.73;98942.13;5064152;28;20479;-77
2022/09/27 10:03:05;;;;;;;3.15;1.25;;;;;;;34.66;13.18;98940.38;5080325;28;20039;-76
2022/09/27 10:05:32;;;;;;;2.30;1.08;;;;;;;34.63;13.61;98938.28;5047236;28;20402;-74
2022/09/27 10:08:07;;;;;;;4.22;1.20;;;;;;;37.04;12.27;98939.31;5048330;28;20039;-75
2022/09/27 10:10:35;;;;;;;4.85;1.38;;;;;;;39.05;10.91;98965.16;5096003;28;20050;-74
2022/09/27 10:13:29;;;;;;;3.50;1.60;;;;;;;37.78;11.51;98953.44;5080962;28;20059;-75
2022/09/27 10:16:04;;;;;;;5.53;1.55;;;;;;;35.39;13.15;98942.56;5088154;28;20043;-76
2022/09/27 10:18:31;;;;;;;3.63;2.10;;;;;;;35.37;13.33;98922.75;5058368;28;20043;-76
2022/09/27 10:21:01;;;;;;;5.20;2.30;;;;;;;37.35;12.06;98955.31;5058037;28;20054;-75
2022/09/27 10:23:27;;;;;;;3.00;2.30;;;;;;;38.12;11.76;98952.06;5062749;28;20050;-74
2022/09/27 10:26:09;;;;;;;4.43;2.13;;;;;;;37.65;12.34;98946.31;5049271;28;20048;-74
2022/09/27 10:28:42;;;;;;;8.90;2.22;;;;;;;38.63;11.48;98951.03;5044740;28;20040;-73
2022/09/27 10:31:21;;;;;;;3.08;1.90;;;;;;;37.97;11.48;98942.50;5059611;28;20036;-75
2022/09/27 10:34:20;;;;;;;4.38;1.88;;;;;;;35.99;12.82;98935.69;5081732;28;20043;-73
2022/09/27 10:37:11;;;;;;;5.72;2.17;;;;;;;33.96;14.44;98916.13;5095068;28;20161;-72
2022/09/27 10:39:46;;;;;;;;;;;;;;;35.04;13.92;98919.09;5062612;28;20499;-76
2022/09/27 10:42:20;;;;;;;4.03;2.03;;;;;;;36.39;12.76;98931.19;5074436;28;19930;-75
2022/09/27 10:44:46;;;;;;;3.78;1.83;;;;;;;37.67;11.93;98913.56;5062461;28;20478;-76
2022/09/27 10:47:30;;;;;;;2.35;1.48;;;;;;;37.54;11.58;98923.03;5081224;28;20119;-74
2022/09/27 10:50:27;;;;;;;3.28;1.80;;;;;;;35.35;13.08;98913.19;5064733;28;20043;-74
2022/09/27 10:53:18;;;;;;;6.15;1.73;;;;;;;33.44;14.91;98911.78;5094359;28;20043;-75
2022/09/27 10:55:48;;;;;;;3.25;1.58;;;;;;;30.93;16.91;98903.97;5062425;28;20135;-73
2022/09/27 10:58:25;;;;;;;2.92;1.30;;;;;;;30.42;17.55;98898.72;5077986;28;20124;-73
2022/09/27 11:01:01;;;;;;;5.00;1.48;;;;;;;30.64;17.31;98903.47;5078101;28;20043;-74
2022/09/27 11:03:34;;;;;;;5.68;1.50;;;;;;;31.41;16.40;98912.50;5060786;28;20046;-74
2022/09/27 11:06:26;;;;;;;1.92;0.90;;;;;;;32.29;15.94;98898.69;5060896;28;20116;-74
2022/09/27 11:08:54;;;;;;;3.50;1.10;;;;;;;33.71;14.54;98902.34;5062175;28;20055;-74
2022/09/27 11:11:24;;;;;;;2.10;1.58;;;;;;;35.53;12.97;98898.09;5078014;28;20054;-74
2022/09/27 11:14:03;;;;;;;5.88;1.42;;;;;;;36.84;12.24;98915.34;5077684;28;20059;-75
2022/09/27 11:16:30;;;;;;;7.47;1.30;;;;;;;37.73;11.04;98911.31;5078746;28;20051;-77
2022/09/27 11:19:05;;;;;;;3.50;1.10;;;;;;;36.78;12.06;98900.91;5061237;28;20043;-75
2022/09/27 11:21:55;;;;;;;2.22;1.00;;;;;;;35.11;12.70;98901.97;5087888;28;20075;-74
2022/09/27 11:24:39;;;;;;;2.28;1.30;;;;;;;33.74;14.24;98872.22;5054185;28;20150;-74
2022/09/27 11:27:43;;;;;;;4.68;1.30;;;;;;;33.89;14.48;98891.00;5037869;28;20044;-74
2022/09/27 11:30:14;;;;;;;3.42;1.27;;;;;;;34.62;13.52;98889.78;5038180;28;20036;-75
2022/09/27 11:33:03;;;;;;;4.13;1.20;;;;;;;34.20;14.01;98863.16;5042118;28;20056;-75
2022/09/27 11:35:36;;;;;;;2.85;1.35;;;;;;;33.26;14.60;98859.78;5071328;28;20055;-75
2022/09/27 11:38:23;;;;;;;6.88;1.67;;;;;;;32.15;15.63;98862.25;5037761;28;20052;-74
2022/09/27 11:41:16;;;;;;;4.25;1.50;;;;;;;30.88;16.62;98874.72;5038082;28;20446;-74
2022/09/27 11:43:57;;;;;;;3.63;1.50;;;;;;;29.56;18.04;98858.38;5022287;28;20040;-75
2022/09/27 11:46:36;;;;;;;3.55;1.63;;;;;;;28.67;19.01;98860.53;5037619;28;20056;-73
2022/09/27 11:49:14;;;;;;;3.17;1.90;;;;;;;27.94;20.12;98863.56;5053844;28;20047;-75
2022/09/27 11:51:56;;;;;;;3.67;2.10;;;;;;;27.10;21.05;98867.78;5021022;28;20052;-74
2022/09/27 11:54:48;;;;;;;6.10;2.38;;;;;;;26.82;21.72;98863.06;5053177;28;20084;-73
2022/09/27 11:57:32;;;;;;;3.78;2.28;;;;;;;26.15;22.29;98837.22;5053185;28;20056;-74
2022/09/27 12:00:07;;;;;;;7.55;2.72;;;;;;;25.95;22.89;98867.19;5054920;28;20110;-75
2022/09/27 12:03:08;;;;;;;3.92;2.40;;;;;;;25.65;23.50;98866.41;5055115;28;20125;-73
2022/09/27 12:06:17;;;;;;;5.97;2.47;;;;;;;25.27;23.86;98859.59;5053613;28;20402;-72
2022/09/27 12:09:08;;;;;;;4.75;2.70;;;;;;;24.63;24.71;98853.75;5023934;28;20044;-72
2022/09/27 12:11:44;;;;;;;3.40;2.00;;;;;;;23.62;25.96;98856.22;5046050;28;20548;-73
2022/09/27 12:14:23;;;;;;;4.13;2.70;;;;;;;23.53;26.13;98847.75;5068087;28;20072;-71
2022/09/27 12:16:53;;;;;;;8.70;2.85;;;;;;;23.32;26.59;98851.41;5046096;28;20099;-72